イエローナイフ の空港の天気 - METARとTAF

イエローナイフ空港 ( CYZF / YZF ) - カナダ ノースウエスト準州イエローナイフ
飛行場実況気象(Metar)
観測時間08/22 10:00 MDT (08/22 16:00 UTC)
風向・風速西 4m/s
視程8050m
天気現象弱い霧雨 もや
全天を覆う雲 雲底高度 120m
気温13℃
湿度94%
気圧994.8hPa
METARCYZF 221600Z 26008KT 5SM -DZ BR OVC004 13/12 A2935 RMK ST8 CIG VRB 003-005 SLP948 DENSITY ALT 1200FT
過去の天気等 Google飛行場航空写真 Wunderground天気予報

過去48時間のMETAR

飛行場予報(TAF)
発表時間: 8/22 09:18 MDT (8/22 15:18 UTC)
予報対象時間: 22日9時 MDT ~ 23日6時 MDT
風向・風速西 4m/s
視程10km以上
天気現象弱い雨
全天の4割程度の雲 雲底高度 150m
全天を覆う雲 雲底高度 460m
22日9時 MDT ~ 22日15時 MDT に一時的に
視程8050m
天気現象弱い雨 もや
全天を覆う雲 雲底高度 150m
22日10時 MDT ~ 22日12時 MDT に徐々に
風向・風速北西 8m/s 瞬間風速 13m/s
22日15時 MDT から
風向・風速北西 8m/s 瞬間風速 13m/s
視程10km以上
天気現象弱い雨
全天の4割程度の雲 雲底高度 370m
全天を覆う雲 雲底高度 910m
22日15時 MDT ~ 22日18時 MDT に一時的に
視程8050m
天気現象弱い雨 もや
全天を覆う雲 雲底高度 370m
22日18時 MDT から
風向・風速北西 7m/s 瞬間風速 12m/s
視程10km以上
天気現象弱い雨
全天の8割程度の雲 雲底高度 610m
22日22時 MDT から
風向・風速北西 4m/s
視程10km以上
少しの雲 雲底高度 760m
22日22時 MDT ~ 22日24時 MDT に徐々に
風向・風速不定 2m/s
TAF AMD CYZF 221518Z 2215/2312 28008KT P6SM -RA SCT005 OVC015
TEMPO 2215/2221 5SM -RA BR OVC005
BECMG 2216/2218 31015G25KT
FM222100 31015G25KT P6SM -RA SCT012 OVC030
TEMPO 2221/2224 5SM -RA BR OVC012
FM230000 32013G23KT P6SM -RA BKN020
FM230400 32008KT P6SM FEW025
BECMG 2304/2306 VRB03KT RMK NXT FCST BY 221800Z